createdAt,value
2018-12-27T00:00:15.604Z,-3.10
2018-12-27T00:02:55.250Z,-3.00
2018-12-27T00:05:29.440Z,-3.00
2018-12-27T00:08:12.527Z,-3.00
2018-12-27T00:10:51.246Z,-3.00
2018-12-27T00:13:27.695Z,-2.90
2018-12-27T00:16:01.780Z,-2.90
2018-12-27T00:18:36.779Z,-2.90
2018-12-27T00:21:18.065Z,-2.90
2018-12-27T00:23:53.333Z,-2.90
2018-12-27T00:26:33.959Z,-3.00
2018-12-27T00:29:17.439Z,-3.00
2018-12-27T00:31:52.760Z,-3.00
2018-12-27T00:34:25.662Z,-3.00
2018-12-27T00:37:01.214Z,-3.20
2018-12-27T00:39:36.341Z,-3.30
2018-12-27T00:42:08.920Z,-3.50
2018-12-27T00:44:47.305Z,-3.50
2018-12-27T00:47:24.976Z,-3.50
2018-12-27T00:50:04.184Z,-3.40
2018-12-27T00:52:44.753Z,-3.40
2018-12-27T00:55:20.886Z,-3.50
2018-12-27T00:57:59.083Z,-3.50
2018-12-27T01:00:36.925Z,-3.40
2018-12-27T01:03:14.105Z,-3.40
2018-12-27T01:05:49.969Z,-3.30
2018-12-27T01:08:30.106Z,-3.30
2018-12-27T01:11:06.169Z,-3.20
2018-12-27T01:13:39.350Z,-3.20
2018-12-27T01:16:12.628Z,-3.20
2018-12-27T01:18:49.543Z,-3.30
2018-12-27T01:21:27.723Z,-3.30
2018-12-27T01:24:09.889Z,-3.30
2018-12-27T01:26:48.980Z,-3.20
2018-12-27T01:29:26.180Z,-3.20
2018-12-27T01:32:05.901Z,-3.20
2018-12-27T01:34:42.172Z,-3.20
2018-12-27T01:37:18.748Z,-3.30
2018-12-27T01:39:56.206Z,-3.20
2018-12-27T01:42:32.852Z,-3.20
2018-12-27T01:45:12.915Z,-3.20
2018-12-27T01:47:47.724Z,-3.20
2018-12-27T01:50:24.528Z,-3.10
2018-12-27T01:52:59.426Z,-3.10
2018-12-27T01:55:39.523Z,-3.20
2018-12-27T01:58:20.106Z,-3.20
2018-12-27T02:00:58.360Z,-3.20
2018-12-27T02:03:34.978Z,-3.20
2018-12-27T02:06:10.081Z,-3.20
2018-12-27T02:08:46.528Z,-3.20
2018-12-27T02:11:23.337Z,-3.20
2018-12-27T02:14:00.884Z,-3.20
2018-12-27T02:16:34.281Z,-3.20
2018-12-27T02:19:11.264Z,-3.20
2018-12-27T02:21:46.557Z,-3.20
2018-12-27T02:24:22.881Z,-3.20
2018-12-27T02:27:00.455Z,-3.20
2018-12-27T02:29:36.336Z,-3.20
2018-12-27T02:32:16.545Z,-3.20
2018-12-27T02:34:51.695Z,-3.30
2018-12-27T02:37:26.028Z,-3.20
2018-12-27T02:40:02.869Z,-3.30
2018-12-27T02:42:44.169Z,-3.30
2018-12-27T02:45:23.702Z,-3.40
2018-12-27T02:48:04.813Z,-3.40
2018-12-27T02:50:40.240Z,-3.40
2018-12-27T02:53:17.724Z,-3.40
2018-12-27T02:55:54.642Z,-3.40
2018-12-27T02:58:29.679Z,-3.50
2018-12-27T03:01:05.120Z,-3.50
2018-12-27T03:03:43.934Z,-3.50
2018-12-27T03:06:21.590Z,-3.50
2018-12-27T03:08:58.690Z,-3.50
2018-12-27T03:11:34.709Z,-3.50
2018-12-27T03:14:13.294Z,-3.50
2018-12-27T03:16:53.971Z,-3.50
2018-12-27T03:19:29.485Z,-3.40
2018-12-27T03:22:10.110Z,-3.40
2018-12-27T03:24:47.526Z,-3.40
2018-12-27T03:27:25.762Z,-3.40
2018-12-27T03:30:06.144Z,-3.50
2018-12-27T03:32:45.783Z,-3.50
2018-12-27T03:35:26.688Z,-3.50
2018-12-27T03:38:03.090Z,-3.40
2018-12-27T03:40:39.847Z,-3.50
2018-12-27T03:43:17.610Z,-3.50
2018-12-27T03:45:53.948Z,-3.60
2018-12-27T03:48:32.495Z,-3.50
2018-12-27T03:51:09.686Z,-3.50
2018-12-27T03:53:47.726Z,-3.50
2018-12-27T03:56:28.509Z,-3.50
2018-12-27T03:59:10.110Z,-3.40
2018-12-27T04:01:46.665Z,-3.40
2018-12-27T04:04:24.950Z,-3.40
2018-12-27T04:07:01.997Z,-3.50
2018-12-27T04:09:37.490Z,-3.50
2018-12-27T04:12:16.617Z,-3.50
2018-12-27T04:14:55.275Z,-3.50
2018-12-27T04:17:37.726Z,-3.50
2018-12-27T04:20:18.355Z,-3.50
2018-12-27T04:22:52.499Z,-3.60
2018-12-27T04:25:27.725Z,-3.60
2018-12-27T04:28:06.435Z,-3.60
2018-12-27T04:30:43.370Z,-3.50
2018-12-27T04:33:19.881Z,-3.60
2018-12-27T04:35:57.725Z,-3.60
2018-12-27T04:38:31.663Z,-3.60
2018-12-27T04:41:10.948Z,-3.50
2018-12-27T04:43:47.726Z,-3.60
2018-12-27T04:46:27.147Z,-3.60
2018-12-27T04:49:07.725Z,-3.60
2018-12-27T04:51:44.587Z,-3.60
2018-12-27T04:54:24.118Z,-3.70
2018-12-27T04:56:58.544Z,-3.70
2018-12-27T04:59:32.786Z,-3.70
2018-12-27T05:02:07.038Z,-3.60
2018-12-27T05:04:43.358Z,-3.60
2018-12-27T05:07:26.594Z,-3.80
2018-12-27T05:10:03.488Z,-3.90
2018-12-27T05:12:36.459Z,-3.80
2018-12-27T05:15:14.731Z,-3.70
2018-12-27T05:17:49.311Z,-3.80
2018-12-27T05:20:26.153Z,-3.90
2018-12-27T05:23:03.831Z,-4.00
2018-12-27T05:25:43.238Z,-4.10
2018-12-27T05:28:19.664Z,-4.10
2018-12-27T05:30:58.609Z,-4.00
2018-12-27T05:33:33.320Z,-3.90
2018-12-27T05:36:14.264Z,-3.80
2018-12-27T05:38:52.456Z,-3.70
2018-12-27T05:41:29.595Z,-3.70
2018-12-27T05:44:13.149Z,-3.70
2018-12-27T05:46:53.571Z,-3.60
2018-12-27T05:49:29.424Z,-3.60
2018-12-27T05:52:04.864Z,-3.60
2018-12-27T05:54:43.316Z,-3.60
2018-12-27T05:57:20.111Z,-3.60
2018-12-27T05:59:58.994Z,-3.60
2018-12-27T06:02:40.108Z,-3.70
2018-12-27T06:05:13.243Z,-3.70
2018-12-27T06:07:50.601Z,-3.80
2018-12-27T06:10:28.620Z,-3.70
2018-12-27T06:13:08.073Z,-3.70
2018-12-27T06:15:44.848Z,-3.60
2018-12-27T06:18:22.539Z,-3.60
2018-12-27T06:20:56.960Z,-3.60
2018-12-27T06:23:35.032Z,-3.60
2018-12-27T06:26:12.191Z,-3.50
2018-12-27T06:28:50.030Z,-3.50
2018-12-27T06:31:31.504Z,-3.50
2018-12-27T06:34:07.724Z,-3.50
2018-12-27T06:36:45.878Z,-3.50
2018-12-27T06:39:24.140Z,-3.50
2018-12-27T06:41:59.510Z,-3.50
2018-12-27T06:44:40.109Z,-3.50
2018-12-27T06:47:17.103Z,-3.50
2018-12-27T06:49:54.107Z,-3.50
2018-12-27T06:52:32.731Z,-3.70
2018-12-27T06:55:12.339Z,-3.70
2018-12-27T06:57:47.725Z,-3.60
2018-12-27T07:00:29.375Z,-3.60
2018-12-27T07:03:04.349Z,-3.80
2018-12-27T07:05:44.274Z,-3.90
2018-12-27T07:08:19.203Z,-3.90
2018-12-27T07:11:00.779Z,-3.90
2018-12-27T07:13:38.286Z,-3.90
2018-12-27T07:16:14.355Z,-3.80
2018-12-27T07:18:56.429Z,-3.90
2018-12-27T07:21:30.423Z,-3.80
2018-12-27T07:24:12.454Z,-3.70
2018-12-27T07:26:51.538Z,-3.70
2018-12-27T07:29:26.994Z,-3.60
2018-12-27T07:32:02.618Z,-3.50
2018-12-27T07:34:41.250Z,-3.40
2018-12-27T07:37:21.787Z,-3.40
2018-12-27T07:40:01.894Z,-3.40
2018-12-27T07:42:37.726Z,-3.30
2018-12-27T07:45:15.628Z,-3.20
2018-12-27T07:47:49.678Z,-3.20
2018-12-27T07:50:27.133Z,-3.10
2018-12-27T07:53:04.529Z,-3.10
2018-12-27T07:55:44.383Z,-3.00
2018-12-27T07:58:23.833Z,-2.90
2018-12-27T08:01:01.045Z,-2.80
2018-12-27T08:03:40.108Z,-2.70
2018-12-27T08:06:16.772Z,-2.70
2018-12-27T08:08:55.474Z,-2.60
2018-12-27T08:11:33.159Z,-2.50
2018-12-27T08:14:11.253Z,-2.40
2018-12-27T08:16:47.043Z,-2.30
2018-12-27T08:19:24.148Z,-2.10
2018-12-27T08:21:59.433Z,-1.90
2018-12-27T08:24:37.725Z,-1.80
2018-12-27T08:27:16.809Z,-1.70
2018-12-27T08:29:49.299Z,-1.50
2018-12-27T08:32:22.600Z,-1.50
2018-12-27T08:35:11.118Z,-1.30
2018-12-27T08:37:38.468Z,-1.20
2018-12-27T08:40:11.768Z,-1.10
2018-12-27T08:42:46.875Z,-1.00
2018-12-27T08:45:23.594Z,-0.90
2018-12-27T08:47:57.726Z,-0.80
2018-12-27T08:50:37.133Z,-0.70
2018-12-27T08:53:15.621Z,-0.60
2018-12-27T08:55:44.398Z,-0.50
2018-12-27T08:58:16.044Z,-0.30
2018-12-27T09:00:50.108Z,-0.30
2018-12-27T09:03:24.350Z,-0.10
2018-12-27T09:06:02.392Z,0.10
2018-12-27T09:08:38.322Z,0.10
2018-12-27T09:11:12.275Z,0.30
2018-12-27T09:13:49.551Z,0.40
2018-12-27T09:16:26.948Z,0.50
2018-12-27T09:19:05.317Z,0.50
2018-12-27T09:21:41.330Z,0.60
2018-12-27T09:24:11.836Z,0.60
2018-12-27T09:26:42.972Z,0.70
2018-12-27T09:29:17.301Z,0.80
2018-12-27T09:31:55.194Z,0.90
2018-12-27T09:34:32.469Z,0.90
2018-12-27T09:37:03.956Z,0.90
2018-12-27T09:39:38.297Z,1.00
2018-12-27T09:42:08.981Z,1.10
2018-12-27T09:44:44.084Z,1.20
2018-12-27T09:47:22.550Z,1.30
2018-12-27T09:49:57.724Z,1.20
2018-12-27T09:52:35.785Z,1.30
2018-12-27T09:55:12.141Z,1.30
2018-12-27T09:57:46.088Z,1.40
2018-12-27T10:00:17.438Z,1.50
2018-12-27T10:02:52.565Z,1.60
2018-12-27T10:05:25.284Z,1.70
2018-12-27T10:07:57.588Z,1.80
2018-12-27T10:10:28.843Z,1.90
2018-12-27T10:13:02.317Z,1.80
2018-12-27T10:15:33.596Z,1.80
2018-12-27T10:18:07.408Z,1.80
2018-12-27T10:20:40.591Z,1.80
2018-12-27T10:23:14.206Z,1.90
2018-12-27T10:25:43.324Z,2.00
2018-12-27T10:28:15.361Z,2.10
2018-12-27T10:30:47.488Z,2.10
2018-12-27T10:33:24.318Z,2.20
2018-12-27T10:35:56.483Z,2.20
2018-12-27T10:38:31.565Z,2.10
2018-12-27T10:41:03.726Z,2.10
2018-12-27T10:43:39.551Z,2.10
2018-12-27T10:46:12.462Z,2.00
2018-12-27T10:48:45.746Z,2.00
2018-12-27T10:51:18.043Z,2.10
2018-12-27T10:53:51.731Z,2.20
2018-12-27T10:56:21.154Z,2.30
2018-12-27T10:58:54.399Z,2.40
2018-12-27T11:01:25.587Z,2.40
2018-12-27T11:03:59.012Z,2.40
2018-12-27T11:06:36.275Z,2.40
2018-12-27T11:09:10.024Z,2.40
2018-12-27T11:11:43.725Z,2.40
2018-12-27T11:14:17.572Z,2.40
2018-12-27T11:16:52.310Z,2.30
2018-12-27T11:19:24.104Z,2.20
2018-12-27T11:21:58.868Z,2.20
2018-12-27T11:24:27.632Z,2.40
2018-12-27T11:26:58.355Z,2.50
2018-12-27T11:29:29.476Z,2.50
2018-12-27T11:31:59.429Z,2.40
2018-12-27T11:34:33.119Z,2.50
2018-12-27T11:37:02.402Z,2.60
2018-12-27T11:39:31.359Z,2.70
2018-12-27T11:42:01.085Z,2.90
2018-12-27T11:44:32.883Z,3.10
2018-12-27T11:47:08.758Z,3.20
2018-12-27T11:49:43.724Z,3.30
2018-12-27T11:52:25.203Z,3.40
2018-12-27T11:55:02.220Z,3.50
2018-12-27T11:57:37.026Z,3.60
2018-12-27T12:00:10.049Z,3.70
2018-12-27T12:02:51.121Z,3.80
2018-12-27T12:05:24.820Z,3.90
2018-12-27T12:07:58.570Z,3.90
2018-12-27T12:10:32.372Z,3.90
2018-12-27T12:13:01.410Z,3.90
2018-12-27T12:15:30.522Z,4.10
2018-12-27T12:18:03.726Z,4.20
2018-12-27T12:20:33.575Z,4.20
2018-12-27T12:23:06.349Z,4.20
2018-12-27T12:25:39.578Z,4.20
2018-12-27T12:28:14.291Z,4.20
2018-12-27T12:30:44.646Z,4.30
2018-12-27T12:33:18.213Z,4.50
2018-12-27T12:35:52.274Z,4.60
2018-12-27T12:38:22.260Z,4.70
2018-12-27T12:40:58.293Z,4.60
2018-12-27T12:43:34.475Z,4.60
2018-12-27T12:46:12.933Z,4.50
2018-12-27T12:48:48.784Z,4.60
2018-12-27T12:51:26.108Z,4.60
2018-12-27T12:54:03.726Z,4.70
2018-12-27T12:56:33.136Z,4.70
2018-12-27T12:59:09.145Z,4.60
2018-12-27T13:01:45.358Z,4.50
2018-12-27T13:04:18.532Z,4.50
2018-12-27T13:06:53.729Z,4.50
2018-12-27T13:09:32.097Z,4.50
2018-12-27T13:12:04.757Z,4.50
2018-12-27T13:14:36.769Z,4.40
2018-12-27T13:17:10.392Z,4.40
2018-12-27T13:19:46.115Z,4.40
2018-12-27T13:22:16.090Z,4.40
2018-12-27T13:24:53.616Z,4.40
2018-12-27T13:27:22.482Z,4.40
2018-12-27T13:30:01.774Z,4.40
2018-12-27T13:32:28.921Z,4.40
2018-12-27T13:35:03.727Z,4.40
2018-12-27T13:37:37.273Z,4.40
2018-12-27T13:40:19.218Z,4.40
2018-12-27T13:42:54.845Z,4.40
2018-12-27T13:45:32.348Z,4.30
2018-12-27T13:48:06.280Z,4.20
2018-12-27T13:50:40.070Z,4.20
2018-12-27T13:53:18.431Z,4.00
2018-12-27T13:55:53.727Z,3.90
2018-12-27T13:58:26.461Z,3.80
2018-12-27T14:00:58.096Z,3.70
2018-12-27T14:03:34.931Z,3.60
2018-12-27T14:06:10.890Z,3.50
2018-12-27T14:08:46.186Z,3.40
2018-12-27T14:11:23.726Z,3.40
2018-12-27T14:14:03.727Z,3.30
2018-12-27T14:16:34.766Z,3.30
2018-12-27T14:19:11.024Z,3.20
2018-12-27T14:21:46.977Z,3.10
2018-12-27T14:24:23.360Z,3.00
2018-12-27T14:26:52.825Z,2.90
2018-12-27T14:29:28.492Z,2.90
2018-12-27T14:32:02.704Z,2.90
2018-12-27T14:34:35.660Z,2.80
2018-12-27T14:37:14.782Z,2.80
2018-12-27T14:39:50.623Z,2.70
2018-12-27T14:42:27.046Z,2.70
2018-12-27T14:44:56.192Z,2.60
2018-12-27T14:47:30.012Z,2.50
2018-12-27T14:50:06.833Z,2.50
2018-12-27T14:52:38.376Z,2.40
2018-12-27T14:55:21.043Z,2.40
2018-12-27T14:57:50.535Z,2.30
2018-12-27T15:00:30.298Z,2.20
2018-12-27T15:03:00.857Z,2.00
2018-12-27T15:05:37.491Z,1.90
2018-12-27T15:08:08.103Z,1.90
2018-12-27T15:10:43.725Z,1.80
2018-12-27T15:13:20.260Z,1.70
2018-12-27T15:15:53.793Z,1.70
2018-12-27T15:18:24.448Z,1.60
2018-12-27T15:20:59.198Z,1.60
2018-12-27T15:23:31.516Z,1.50
2018-12-27T15:26:05.381Z,1.50
2018-12-27T15:28:38.277Z,1.30
2018-12-27T15:31:07.814Z,1.30
2018-12-27T15:33:40.702Z,1.30
2018-12-27T15:36:16.291Z,1.20
2018-12-27T15:38:53.340Z,1.20
2018-12-27T15:41:28.047Z,1.10
2018-12-27T15:44:03.693Z,1.10
2018-12-27T15:46:43.501Z,1.10
2018-12-27T15:49:17.125Z,1.10
2018-12-27T15:51:54.404Z,1.10
2018-12-27T15:54:28.071Z,1.10
2018-12-27T15:57:04.422Z,1.10
2018-12-27T15:59:36.880Z,1.10
2018-12-27T16:02:13.299Z,1.00
2018-12-27T16:04:49.211Z,1.10
2018-12-27T16:07:23.887Z,1.00
2018-12-27T16:09:54.269Z,1.10
2018-12-27T16:12:30.223Z,1.00
2018-12-27T16:15:04.337Z,0.90
2018-12-27T16:17:38.163Z,0.90
2018-12-27T16:20:15.347Z,0.80
2018-12-27T16:22:47.310Z,0.80
2018-12-27T16:25:22.732Z,0.80
2018-12-27T16:27:52.129Z,0.80
2018-12-27T16:30:30.868Z,0.70
2018-12-27T16:33:05.772Z,0.60
2018-12-27T16:35:43.824Z,0.60
2018-12-27T16:38:22.785Z,0.70
2018-12-27T16:40:59.122Z,0.70
2018-12-27T16:43:34.893Z,0.70
2018-12-27T16:46:04.393Z,0.70
2018-12-27T16:48:36.809Z,0.70
2018-12-27T16:51:14.258Z,0.70
2018-12-27T16:53:49.903Z,0.70
2018-12-27T16:56:23.726Z,0.70
2018-12-27T16:58:53.049Z,0.70
2018-12-27T17:01:22.513Z,0.70
2018-12-27T17:03:54.502Z,0.70
2018-12-27T17:06:27.361Z,0.70
2018-12-27T17:08:58.110Z,0.70
2018-12-27T17:11:31.471Z,0.70
2018-12-27T17:14:04.014Z,0.70
2018-12-27T17:16:36.685Z,0.70
2018-12-27T17:19:09.155Z,0.70
2018-12-27T17:21:41.576Z,0.70
2018-12-27T17:24:16.240Z,0.70
2018-12-27T17:26:51.441Z,0.70
2018-12-27T17:29:31.116Z,0.70
2018-12-27T17:32:09.077Z,0.70
2018-12-27T17:34:46.324Z,0.70
2018-12-27T17:37:23.400Z,0.60
2018-12-27T17:40:02.475Z,0.60
2018-12-27T17:42:36.205Z,0.60
2018-12-27T17:45:07.579Z,0.60
2018-12-27T17:47:40.282Z,0.60
2018-12-27T17:50:13.209Z,0.60
2018-12-27T17:52:47.132Z,0.60
2018-12-27T17:55:16.539Z,0.60
2018-12-27T17:57:50.541Z,0.50
2018-12-27T18:00:23.322Z,0.60
2018-12-27T18:02:54.967Z,0.50
2018-12-27T18:05:24.796Z,0.50
2018-12-27T18:07:59.428Z,0.50
2018-12-27T18:10:31.287Z,0.40
2018-12-27T18:13:04.337Z,0.40
2018-12-27T18:15:34.926Z,0.40
2018-12-27T18:18:09.844Z,0.30
2018-12-27T18:20:43.726Z,0.40
2018-12-27T18:23:17.449Z,0.40
2018-12-27T18:25:52.227Z,0.30
2018-12-27T18:28:28.171Z,0.30
2018-12-27T18:31:02.170Z,0.30
2018-12-27T18:33:35.439Z,0.40
2018-12-27T18:36:10.634Z,0.40
2018-12-27T18:38:45.271Z,0.40
2018-12-27T18:41:20.957Z,0.40
2018-12-27T18:43:58.405Z,0.30
2018-12-27T18:46:33.134Z,0.30
2018-12-27T18:49:08.236Z,0.30
2018-12-27T18:51:41.573Z,0.30
2018-12-27T18:54:17.616Z,0.30
2018-12-27T18:56:50.855Z,0.30
2018-12-27T18:59:19.874Z,0.30
2018-12-27T19:01:51.887Z,0.20
2018-12-27T19:04:26.694Z,0.20
2018-12-27T19:07:03.210Z,0.10
2018-12-27T19:09:37.807Z,0.10
2018-12-27T19:12:44.348Z,0.00
2018-12-27T19:15:20.935Z,0.10
2018-12-27T19:17:58.043Z,0.10
2018-12-27T19:20:33.428Z,0.10
2018-12-27T19:23:11.036Z,0.20
2018-12-27T19:25:47.113Z,0.20
2018-12-27T19:28:19.848Z,0.20
2018-12-27T19:30:53.726Z,0.20
2018-12-27T19:33:25.677Z,0.20
2018-12-27T19:36:00.121Z,0.20
2018-12-27T19:38:35.056Z,0.10
2018-12-27T19:41:05.743Z,0.10
2018-12-27T19:43:41.060Z,0.10
2018-12-27T19:46:16.453Z,0.10
2018-12-27T19:48:53.726Z,0.10
2018-12-27T19:51:28.312Z,0.10
2018-12-27T19:54:02.470Z,0.10
2018-12-27T19:56:35.314Z,0.10
2018-12-27T19:59:08.671Z,0.10
2018-12-27T20:01:45.112Z,0.00
2018-12-27T20:04:21.399Z,0.10
2018-12-27T20:06:54.270Z,0.10
2018-12-27T20:09:27.809Z,0.10
2018-12-27T20:11:59.520Z,0.10
2018-12-27T20:14:34.048Z,0.10
2018-12-27T20:17:04.646Z,0.10
2018-12-27T20:19:34.668Z,0.10
2018-12-27T20:22:06.898Z,0.00
2018-12-27T20:24:39.457Z,0.10
2018-12-27T20:27:12.824Z,0.10
2018-12-27T20:29:42.322Z,0.10
2018-12-27T20:32:18.602Z,0.10
2018-12-27T20:34:52.591Z,0.10
2018-12-27T20:37:28.595Z,0.10
2018-12-27T20:39:59.551Z,0.20
2018-12-27T20:42:30.194Z,0.20
2018-12-27T20:45:04.397Z,0.20
2018-12-27T20:47:37.080Z,0.20
2018-12-27T20:50:12.499Z,0.10
2018-12-27T20:52:45.155Z,0.10
2018-12-27T20:55:18.765Z,0.10
2018-12-27T20:57:53.726Z,0.10
2018-12-27T21:00:23.051Z,0.10
2018-12-27T21:02:58.490Z,0.10
2018-12-27T21:05:28.928Z,0.10
2018-12-27T21:08:00.645Z,0.10
2018-12-27T21:10:33.640Z,0.10
2018-12-27T21:13:10.759Z,0.10
2018-12-27T21:15:40.589Z,0.00
2018-12-27T21:18:13.726Z,0.10
2018-12-27T21:20:46.487Z,0.10
2018-12-27T21:23:19.145Z,0.00
2018-12-27T21:25:51.852Z,0.10
2018-12-27T21:28:23.726Z,0.10
2018-12-27T21:30:52.949Z,0.10
2018-12-27T21:33:26.808Z,0.00
2018-12-27T21:36:00.267Z,0.00
2018-12-27T21:38:32.557Z,0.00
2018-12-27T21:41:05.116Z,0.10
2018-12-27T21:43:37.313Z,0.10
2018-12-27T21:46:09.836Z,0.10
2018-12-27T21:48:44.011Z,0.10
2018-12-27T21:51:14.961Z,0.10
2018-12-27T21:53:43.697Z,0.10
2018-12-27T21:56:18.063Z,0.00
2018-12-27T21:58:56.109Z,0.00
2018-12-27T22:01:26.740Z,0.10
2018-12-27T22:03:59.695Z,0.10
2018-12-27T22:06:28.976Z,0.10
2018-12-27T22:09:00.811Z,0.10
2018-12-27T22:11:34.731Z,0.10
2018-12-27T22:14:04.571Z,0.10
2018-12-27T22:16:38.539Z,0.10
2018-12-27T22:19:08.144Z,0.10
2018-12-27T22:21:43.467Z,0.00
2018-12-27T22:24:17.243Z,0.00
2018-12-27T22:26:55.953Z,0.00
2018-12-27T22:29:31.199Z,0.10
2018-12-27T22:32:02.638Z,0.00
2018-12-27T22:34:32.283Z,0.00
2018-12-27T22:37:03.727Z,0.00
2018-12-27T22:39:39.858Z,0.00
2018-12-27T22:42:14.682Z,0.00
2018-12-27T22:44:48.205Z,0.10
2018-12-27T22:47:22.528Z,0.10
2018-12-27T22:49:55.497Z,0.10
2018-12-27T22:52:32.546Z,0.10
2018-12-27T22:55:07.168Z,0.10
2018-12-27T22:57:38.046Z,0.10
2018-12-27T23:00:15.571Z,0.10
2018-12-27T23:02:52.631Z,0.10
2018-12-27T23:05:29.022Z,0.10
2018-12-27T23:08:06.110Z,0.10
2018-12-27T23:10:40.995Z,0.00
2018-12-27T23:13:13.727Z,0.00
2018-12-27T23:15:45.882Z,0.00
2018-12-27T23:18:20.363Z,0.00
2018-12-27T23:20:56.311Z,0.00
2018-12-27T23:23:30.043Z,0.00
2018-12-27T23:25:58.726Z,0.00
2018-12-27T23:28:36.110Z,0.00
2018-12-27T23:31:04.521Z,0.00
2018-12-27T23:33:35.929Z,0.00
2018-12-27T23:36:08.675Z,-0.10
2018-12-27T23:38:37.346Z,-0.10
2018-12-27T23:41:05.949Z,-0.10
2018-12-27T23:43:45.795Z,-0.10
2018-12-27T23:46:25.482Z,-0.10
2018-12-27T23:49:01.386Z,-0.10
2018-12-27T23:51:37.207Z,-0.20
2018-12-27T23:54:09.434Z,-0.20
2018-12-27T23:56:47.338Z,-0.20
2018-12-27T23:59:26.183Z,-0.20
